Terminal Aerodrome Forecast
Issued by NWS

Home | Current Version | Previous Version | Text Only | Print | Product List | Glossary Off
Versions: 1 2 3 4 5 6 7 8 9 10 11 12 13 14

558
FTUS42 KMHX 301720
TAFISO
TAF
KISO 301720Z 3018/0118 20013G19KT P6SM BKN200
     FM010200 20016G25KT P6SM BKN035
     FM010600 22014G22KT 5SM SHRA SCT010 OVC025
     FM011200 28007KT P6SM FEW010 SCT060
      AMD LTD TO CLD VIS AND WIND=

USA.gov is the U.S. government's official web portal to all federal, state and local government web resources and services.